sensor_id;sensor_type;location;lat;lon;timestamp;pressure;altitude;pressure_sealevel;temperature;humidity
47530;BME280;33272;51.922;7.730;2023-03-01T00:01:10;141667.81;;;-3.44;100.00
47530;BME280;33272;51.922;7.730;2023-03-01T00:03:37;141664.09;;;-3.45;100.00
47530;BME280;33272;51.922;7.730;2023-03-01T00:06:06;141657.81;;;-3.48;100.00
47530;BME280;33272;51.922;7.730;2023-03-01T00:08:34;141646.56;;;-3.53;100.00
47530;BME280;33272;51.922;7.730;2023-03-01T00:11:03;141642.81;;;-3.54;100.00
47530;BME280;33272;51.922;7.730;2023-03-01T00:13:31;141636.53;;;-3.57;100.00
47530;BME280;33272;51.922;7.730;2023-03-01T00:15:58;141627.78;;;-3.60;100.00
47530;BME280;33272;51.922;7.730;2023-03-01T00:18:27;141622.81;;;-3.62;100.00
47530;BME280;33272;51.922;7.730;2023-03-01T00:20:55;141625.28;;;-3.61;100.00
47530;BME280;33272;51.922;7.730;2023-03-01T00:23:23;141625.28;;;-3.61;100.00
47530;BME280;33272;51.922;7.730;2023-03-01T00:25:50;141626.53;;;-3.61;100.00
47530;BME280;33272;51.922;7.730;2023-03-01T00:28:18;141635.28;;;-3.57;100.00
47530;BME280;33272;51.922;7.730;2023-03-01T00:30:45;141640.31;;;-3.55;100.00
47530;BME280;33272;51.922;7.730;2023-03-01T00:33:12;141636.53;;;-3.57;100.00
47530;BME280;33272;51.922;7.730;2023-03-01T00:35:41;141630.31;;;-3.59;100.00
47530;BME280;33272;51.922;7.730;2023-03-01T00:38:08;141620.28;;;-3.63;100.00
47530;BME280;33272;51.922;7.730;2023-03-01T00:40:36;141611.53;;;-3.67;100.00
47530;BME280;33272;51.922;7.730;2023-03-01T00:43:04;141605.25;;;-3.69;100.00
47530;BME280;33272;51.922;7.730;2023-03-01T00:45:33;141599.00;;;-3.72;100.00
47530;BME280;33272;51.922;7.730;2023-03-01T00:48:00;141601.53;;;-3.71;100.00
47530;BME280;33272;51.922;7.730;2023-03-01T00:50:27;141597.75;;;-3.73;100.00
47530;BME280;33272;51.922;7.730;2023-03-01T00:52:56;141599.00;;;-3.72;100.00
47530;BME280;33272;51.922;7.730;2023-03-01T00:55:23;141597.75;;;-3.73;100.00
47530;BME280;33272;51.922;7.730;2023-03-01T00:57:50;141599.00;;;-3.72;100.00
47530;BME280;33272;51.922;7.730;2023-03-01T01:00:18;141604.00;;;-3.70;100.00
47530;BME280;33272;51.922;7.730;2023-03-01T01:02:46;141610.28;;;-3.67;100.00
47530;BME280;33272;51.922;7.730;2023-03-01T01:05:13;141617.78;;;-3.64;100.00
47530;BME280;33272;51.922;7.730;2023-03-01T01:07:40;141629.03;;;-3.60;100.00
47530;BME280;33272;51.922;7.730;2023-03-01T01:10:10;141630.31;;;-3.59;100.00
47530;BME280;33272;51.922;7.730;2023-03-01T01:12:43;141636.53;;;-3.57;100.00
47530;BME280;33272;51.922;7.730;2023-03-01T01:15:11;141629.03;;;-3.60;100.00
47530;BME280;33272;51.922;7.730;2023-03-01T01:17:40;141621.53;;;-3.63;100.00
47530;BME280;33272;51.922;7.730;2023-03-01T01:20:08;141614.00;;;-3.66;100.00
47530;BME280;33272;51.922;7.730;2023-03-01T01:22:36;141605.25;;;-3.69;100.00
47530;BME280;33272;51.922;7.730;2023-03-01T01:25:03;141592.78;;;-3.75;100.00
47530;BME280;33272;51.922;7.730;2023-03-01T01:27:32;141581.50;;;-3.79;100.00
47530;BME280;33272;51.922;7.730;2023-03-01T01:29:59;141567.72;;;-3.85;100.00
47530;BME280;33272;51.922;7.730;2023-03-01T01:32:26;141557.72;;;-3.89;100.00
47530;BME280;33272;51.922;7.730;2023-03-01T01:34:53;141543.97;;;-3.94;100.00
47530;BME280;33272;51.922;7.730;2023-03-01T01:37:20;141533.97;;;-3.99;100.00
47530;BME280;33272;51.922;7.730;2023-03-01T01:39:47;141526.47;;;-4.02;100.00
47530;BME280;33272;51.922;7.730;2023-03-01T01:42:16;141536.44;;;-3.98;100.00
47530;BME280;33272;51.922;7.730;2023-03-01T01:44:47;141542.72;;;-3.95;100.00
47530;BME280;33272;51.922;7.730;2023-03-01T01:47:16;141548.97;;;-3.92;100.00
47530;BME280;33272;51.922;7.730;2023-03-01T01:49:48;141545.25;;;-3.94;100.00
47530;BME280;33272;51.922;7.730;2023-03-01T01:52:19;141538.97;;;-3.97;100.00
47530;BME280;33272;51.922;7.730;2023-03-01T01:54:52;141531.47;;;-4.00;100.00
47530;BME280;33272;51.922;7.730;2023-03-01T01:57:25;141527.69;;;-4.01;100.00
47530;BME280;33272;51.922;7.730;2023-03-01T02:00:03;141516.47;;;-4.06;100.00
47530;BME280;33272;51.922;7.730;2023-03-01T02:02:31;141507.72;;;-4.09;100.00
47530;BME280;33272;51.922;7.730;2023-03-01T02:05:06;141493.94;;;-4.15;100.00
47530;BME280;33272;51.922;7.730;2023-03-01T02:07:39;141483.97;;;-4.19;100.00
47530;BME280;33272;51.922;7.730;2023-03-01T02:10:08;141477.69;;;-4.22;100.00
47530;BME280;33272;51.922;7.730;2023-03-01T02:12:36;141468.94;;;-4.25;100.00
47530;BME280;33272;51.922;7.730;2023-03-01T02:15:06;141461.44;;;-4.28;100.00
47530;BME280;33272;51.922;7.730;2023-03-01T02:17:34;141455.19;;;-4.31;100.00
47530;BME280;33272;51.922;7.730;2023-03-01T02:20:12;141450.16;;;-4.33;100.00
47530;BME280;33272;51.922;7.730;2023-03-01T02:22:45;141442.66;;;-4.36;100.00
47530;BME280;33272;51.922;7.730;2023-03-01T02:25:26;141441.41;;;-4.36;100.00
47530;BME280;33272;51.922;7.730;2023-03-01T02:27:59;141436.41;;;-4.38;100.00
47530;BME280;33272;51.922;7.730;2023-03-01T02:30:30;141430.19;;;-4.41;100.00
47530;BME280;33272;51.922;7.730;2023-03-01T02:32:58;141428.91;;;-4.42;100.00
47530;BME280;33272;51.922;7.730;2023-03-01T02:35:30;141422.69;;;-4.44;100.00
47530;BME280;33272;51.922;7.730;2023-03-01T02:37:59;141415.19;;;-4.47;100.00
47530;BME280;33272;51.922;7.730;2023-03-01T02:40:29;141408.94;;;-4.50;100.00
47530;BME280;33272;51.922;7.730;2023-03-01T02:42:58;141410.16;;;-4.49;100.00
47530;BME280;33272;51.922;7.730;2023-03-01T02:45:27;141408.94;;;-4.50;100.00
47530;BME280;33272;51.922;7.730;2023-03-01T02:47:55;141410.16;;;-4.49;100.00
47530;BME280;33272;51.922;7.730;2023-03-01T02:50:47;141416.44;;;-4.47;100.00
47530;BME280;33272;51.922;7.730;2023-03-01T02:53:25;141417.66;;;-4.46;100.00
47530;BME280;33272;51.922;7.730;2023-03-01T02:55:55;141412.66;;;-4.48;100.00
47530;BME280;33272;51.922;7.730;2023-03-01T02:58:22;141413.91;;;-4.48;100.00
47530;BME280;33272;51.922;7.730;2023-03-01T03:00:51;141415.19;;;-4.47;100.00
47530;BME280;33272;51.922;7.730;2023-03-01T03:03:21;141408.94;;;-4.50;100.00
47530;BME280;33272;51.922;7.730;2023-03-01T03:05:48;141403.91;;;-4.52;100.00
47530;BME280;33272;51.922;7.730;2023-03-01T03:08:15;141407.69;;;-4.50;100.00
47530;BME280;33272;51.922;7.730;2023-03-01T03:10:49;141407.69;;;-4.50;100.00
47530;BME280;33272;51.922;7.730;2023-03-01T03:13:16;141410.16;;;-4.49;100.00
47530;BME280;33272;51.922;7.730;2023-03-01T03:15:44;141413.91;;;-4.48;100.00
47530;BME280;33272;51.922;7.730;2023-03-01T03:18:16;141421.41;;;-4.45;100.00
47530;BME280;33272;51.922;7.730;2023-03-01T03:20:46;141413.91;;;-4.48;100.00
47530;BME280;33272;51.922;7.730;2023-03-01T03:23:13;141403.91;;;-4.52;100.00
47530;BME280;33272;51.922;7.730;2023-03-01T03:25:40;141398.94;;;-4.54;100.00
47530;BME280;33272;51.922;7.730;2023-03-01T03:28:08;141393.94;;;-4.56;100.00
47530;BME280;33272;51.922;7.730;2023-03-01T03:30:38;141387.66;;;-4.58;100.00
47530;BME280;33272;51.922;7.730;2023-03-01T03:33:06;141377.69;;;-4.62;100.00
47530;BME280;33272;51.922;7.730;2023-03-01T03:35:39;141371.41;;;-4.65;100.00
47530;BME280;33272;51.922;7.730;2023-03-01T03:38:11;141363.91;;;-4.68;100.00
47530;BME280;33272;51.922;7.730;2023-03-01T03:40:44;141358.91;;;-4.70;100.00
47530;BME280;33272;51.922;7.730;2023-03-01T03:43:15;141352.69;;;-4.73;100.00
47530;BME280;33272;51.922;7.730;2023-03-01T03:45:44;141346.44;;;-4.75;100.00
47530;BME280;33272;51.922;7.730;2023-03-01T03:48:11;141347.69;;;-4.75;100.00
47530;BME280;33272;51.922;7.730;2023-03-01T03:50:40;141340.19;;;-4.78;100.00
47530;BME280;33272;51.922;7.730;2023-03-01T03:53:11;141336.41;;;-4.79;100.00
47530;BME280;33272;51.922;7.730;2023-03-01T03:55:39;141331.44;;;-4.81;100.00
47530;BME280;33272;51.922;7.730;2023-03-01T03:58:08;141326.41;;;-4.83;100.00
47530;BME280;33272;51.922;7.730;2023-03-01T04:00:38;141322.69;;;-4.85;100.00
47530;BME280;33272;51.922;7.730;2023-03-01T04:03:05;141325.19;;;-4.84;100.00
47530;BME280;33272;51.922;7.730;2023-03-01T04:05:33;141323.94;;;-4.84;100.00
47530;BME280;33272;51.922;7.730;2023-03-01T04:08:00;141327.66;;;-4.83;100.00
47530;BME280;33272;51.922;7.730;2023-03-01T04:10:36;141326.41;;;-4.83;100.00
47530;BME280;33272;51.922;7.730;2023-03-01T04:13:04;141323.94;;;-4.84;100.00
47530;BME280;33272;51.922;7.730;2023-03-01T04:15:32;141325.19;;;-4.84;100.00
47530;BME280;33272;51.922;7.730;2023-03-01T04:18:00;141320.16;;;-4.86;100.00
47530;BME280;33272;51.922;7.730;2023-03-01T04:20:29;141316.44;;;-4.87;100.00
47530;BME280;33272;51.922;7.730;2023-03-01T04:22:59;141310.19;;;-4.90;100.00
47530;BME280;33272;51.922;7.730;2023-03-01T04:25:38;141308.94;;;-4.91;100.00
47530;BME280;33272;51.922;7.730;2023-03-01T04:28:06;141306.44;;;-4.92;100.00
47530;BME280;33272;51.922;7.730;2023-03-01T04:30:33;141305.16;;;-4.92;100.00
47530;BME280;33272;51.922;7.730;2023-03-01T04:33:03;141306.44;;;-4.92;100.00
47530;BME280;33272;51.922;7.730;2023-03-01T04:35:30;141300.19;;;-4.94;100.00
47530;BME280;33272;51.922;7.730;2023-03-01T04:37:58;141297.66;;;-4.95;100.00
47530;BME280;33272;51.922;7.730;2023-03-01T04:40:25;141293.94;;;-4.97;100.00
47530;BME280;33272;51.922;7.730;2023-03-01T04:42:53;141293.94;;;-4.97;100.00
47530;BME280;33272;51.922;7.730;2023-03-01T04:45:20;141291.44;;;-4.98;100.00
47530;BME280;33272;51.922;7.730;2023-03-01T04:47:48;141283.97;;;-5.01;100.00
47530;BME280;33272;51.922;7.730;2023-03-01T04:50:19;141286.44;;;-5.00;100.00
47530;BME280;33272;51.922;7.730;2023-03-01T04:52:47;141283.97;;;-5.01;100.00
47530;BME280;33272;51.922;7.730;2023-03-01T04:55:14;141283.97;;;-5.01;100.00
47530;BME280;33272;51.922;7.730;2023-03-01T04:57:42;141287.69;;;-4.99;100.00
47530;BME280;33272;51.922;7.730;2023-03-01T05:00:13;141282.66;;;-5.01;100.00
47530;BME280;33272;51.922;7.730;2023-03-01T05:02:48;141276.47;;;-5.04;100.00
47530;BME280;33272;51.922;7.730;2023-03-01T05:05:20;141270.19;;;-5.06;100.00
47530;BME280;33272;51.922;7.730;2023-03-01T05:07:52;141268.97;;;-5.07;100.00
47530;BME280;33272;51.922;7.730;2023-03-01T05:10:19;141262.69;;;-5.09;100.00
47530;BME280;33272;51.922;7.730;2023-03-01T05:12:46;141258.94;;;-5.11;100.00
47530;BME280;33272;51.922;7.730;2023-03-01T05:15:15;141255.19;;;-5.13;100.00
47530;BME280;33272;51.922;7.730;2023-03-01T05:17:42;141248.94;;;-5.15;100.00
47530;BME280;33272;51.922;7.730;2023-03-01T05:20:10;141247.72;;;-5.16;100.00
47530;BME280;33272;51.922;7.730;2023-03-01T05:22:37;141255.19;;;-5.13;100.00
47530;BME280;33272;51.922;7.730;2023-03-01T05:25:06;141256.44;;;-5.12;100.00
47530;BME280;33272;51.922;7.730;2023-03-01T05:27:34;141243.94;;;-5.17;100.00
47530;BME280;33272;51.922;7.730;2023-03-01T05:30:01;141240.22;;;-5.19;100.00
47530;BME280;33272;51.922;7.730;2023-03-01T05:32:41;141231.47;;;-5.22;100.00
47530;BME280;33272;51.922;7.730;2023-03-01T05:35:11;141230.22;;;-5.23;100.00
47530;BME280;33272;51.922;7.730;2023-03-01T05:37:41;141225.22;;;-5.25;100.00
47530;BME280;33272;51.922;7.730;2023-03-01T05:40:11;141225.22;;;-5.25;100.00
47530;BME280;33272;51.922;7.730;2023-03-01T05:42:43;141220.19;;;-5.27;100.00
47530;BME280;33272;51.922;7.730;2023-03-01T05:45:11;141215.25;;;-5.29;100.00
47530;BME280;33272;51.922;7.730;2023-03-01T05:47:41;141211.47;;;-5.30;100.00
47530;BME280;33272;51.922;7.730;2023-03-01T05:50:12;141216.47;;;-5.28;100.00
47530;BME280;33272;51.922;7.730;2023-03-01T05:52:40;141210.22;;;-5.31;100.00
47530;BME280;33272;51.922;7.730;2023-03-01T05:55:08;141211.47;;;-5.30;100.00
47530;BME280;33272;51.922;7.730;2023-03-01T05:57:35;141216.47;;;-5.28;100.00
47530;BME280;33272;51.922;7.730;2023-03-01T06:00:03;141225.22;;;-5.25;100.00
47530;BME280;33272;51.922;7.730;2023-03-01T06:02:32;141229.00;;;-5.23;100.00
47530;BME280;33272;51.922;7.730;2023-03-01T06:05:00;141230.22;;;-5.23;100.00
47530;BME280;33272;51.922;7.730;2023-03-01T06:07:28;141229.00;;;-5.23;100.00
47530;BME280;33272;51.922;7.730;2023-03-01T06:09:55;141232.72;;;-5.22;100.00
47530;BME280;33272;51.922;7.730;2023-03-01T06:12:22;141230.22;;;-5.23;100.00
47530;BME280;33272;51.922;7.730;2023-03-01T06:14:49;141226.47;;;-5.24;100.00
47530;BME280;33272;51.922;7.730;2023-03-01T06:17:16;141233.94;;;-5.21;100.00
47530;BME280;33272;51.922;7.730;2023-03-01T06:19:43;141237.72;;;-5.20;100.00
47530;BME280;33272;51.922;7.730;2023-03-01T06:22:11;141241.44;;;-5.18;100.00
47530;BME280;33272;51.922;7.730;2023-03-01T06:24:38;141241.44;;;-5.18;100.00
47530;BME280;33272;51.922;7.730;2023-03-01T06:27:05;141241.44;;;-5.18;100.00
47530;BME280;33272;51.922;7.730;2023-03-01T06:29:32;141243.94;;;-5.17;100.00
47530;BME280;33272;51.922;7.730;2023-03-01T06:31:59;141243.94;;;-5.17;100.00
47530;BME280;33272;51.922;7.730;2023-03-01T06:34:26;141243.94;;;-5.17;100.00
47530;BME280;33272;51.922;7.730;2023-03-01T06:36:53;141253.97;;;-5.13;100.00
47530;BME280;33272;51.922;7.730;2023-03-01T06:39:22;141261.47;;;-5.10;100.00
47530;BME280;33272;51.922;7.730;2023-03-01T06:41:49;141271.44;;;-5.06;100.00
47530;BME280;33272;51.922;7.730;2023-03-01T06:44:16;141277.69;;;-5.03;100.00
47530;BME280;33272;51.922;7.730;2023-03-01T06:46:43;141281.41;;;-5.02;100.00
47530;BME280;33272;51.922;7.730;2023-03-01T06:49:10;141285.19;;;-5.00;100.00
47530;BME280;33272;51.922;7.730;2023-03-01T06:51:37;141293.94;;;-4.97;100.00
47530;BME280;33272;51.922;7.730;2023-03-01T06:54:04;141302.69;;;-4.93;100.00
47530;BME280;33272;51.922;7.730;2023-03-01T06:56:33;141316.44;;;-4.87;100.00
47530;BME280;33272;51.922;7.730;2023-03-01T06:59:00;141331.44;;;-4.81;100.00
47530;BME280;33272;51.922;7.730;2023-03-01T07:01:28;141346.44;;;-4.75;100.00
47530;BME280;33272;51.922;7.730;2023-03-01T07:03:55;141370.19;;;-4.66;100.00
47530;BME280;33272;51.922;7.730;2023-03-01T07:06:30;141395.16;;;-4.55;100.00
47530;BME280;33272;51.922;7.730;2023-03-01T07:08:57;141428.91;;;-4.42;100.00
47530;BME280;33272;51.922;7.730;2023-03-01T07:11:24;141465.19;;;-4.27;100.00
47530;BME280;33272;51.922;7.730;2023-03-01T07:13:52;141505.19;;;-4.10;100.00
47530;BME280;33272;51.922;7.730;2023-03-01T07:16:20;141542.72;;;-3.95;100.00
47530;BME280;33272;51.922;7.730;2023-03-01T07:18:47;141579.00;;;-3.80;100.00
47530;BME280;33272;51.922;7.730;2023-03-01T07:21:15;141614.00;;;-3.66;100.00
47530;BME280;33272;51.922;7.730;2023-03-01T07:23:42;141652.78;;;-3.50;100.00
47530;BME280;33272;51.922;7.730;2023-03-01T07:26:09;141696.63;;;-3.32;100.00
47530;BME280;33272;51.922;7.730;2023-03-01T07:28:36;141744.16;;;-3.13;100.00
47530;BME280;33272;51.922;7.730;2023-03-01T07:31:06;141791.72;;;-2.93;100.00
47530;BME280;33272;51.922;7.730;2023-03-01T07:33:33;141838.06;;;-2.74;100.00
47530;BME280;33272;51.922;7.730;2023-03-01T07:36:03;141884.41;;;-2.56;100.00
47530;BME280;33272;51.922;7.730;2023-03-01T07:38:30;141927.03;;;-2.38;100.00
47530;BME280;33272;51.922;7.730;2023-03-01T07:40:59;141969.59;;;-2.21;100.00
47530;BME280;33272;51.922;7.730;2023-03-01T07:43:28;142010.97;;;-2.04;100.00
47530;BME280;33272;51.922;7.730;2023-03-01T07:45:58;142054.81;;;-1.86;100.00
47530;BME280;33272;51.922;7.730;2023-03-01T07:48:26;142102.47;;;-1.67;100.00
47530;BME280;33272;51.922;7.730;2023-03-01T07:50:53;142143.81;;;-1.50;100.00
47530;BME280;33272;51.922;7.730;2023-03-01T07:53:20;142178.97;;;-1.35;100.00
47530;BME280;33272;51.922;7.730;2023-03-01T07:55:47;142215.28;;;-1.21;100.00
47530;BME280;33272;51.922;7.730;2023-03-01T07:58:14;142254.16;;;-1.05;100.00
47530;BME280;33272;51.922;7.730;2023-03-01T08:00:41;142290.56;;;-0.90;100.00
47530;BME280;33272;51.922;7.730;2023-03-01T08:03:08;142331.94;;;-0.73;100.00
47530;BME280;33272;51.922;7.730;2023-03-01T08:05:36;142370.84;;;-0.57;100.00
47530;BME280;33272;51.922;7.730;2023-03-01T08:08:04;142408.50;;;-0.42;100.00
47530;BME280;33272;51.922;7.730;2023-03-01T08:10:31;142447.41;;;-0.26;100.00
47530;BME280;33272;51.922;7.730;2023-03-01T08:12:58;142482.59;;;-0.12;100.00
47530;BME280;33272;51.922;7.730;2023-03-01T08:15:25;142513.97;;;0.01;100.00
47530;BME280;33272;51.922;7.730;2023-03-01T08:17:53;142546.59;;;0.14;100.00
47530;BME280;33272;51.922;7.730;2023-03-01T08:20:20;142580.50;;;0.28;100.00
47530;BME280;33272;51.922;7.730;2023-03-01T08:22:49;142611.88;;;0.41;100.00
47530;BME280;33272;51.922;7.730;2023-03-01T08:25:16;142640.78;;;0.53;100.00
47530;BME280;33272;51.922;7.730;2023-03-01T08:27:43;142669.69;;;0.64;100.00
47530;BME280;33272;51.922;7.730;2023-03-01T08:30:11;142703.59;;;0.78;100.00
47530;BME280;33272;51.922;7.730;2023-03-01T08:32:39;142737.56;;;0.92;100.00
47530;BME280;33272;51.922;7.730;2023-03-01T08:35:07;142766.44;;;1.04;100.00
47530;BME280;33272;51.922;7.730;2023-03-01T08:37:34;142802.88;;;1.19;100.00
47530;BME280;33272;51.922;7.730;2023-03-01T08:40:04;142834.31;;;1.31;100.00
47530;BME280;33272;51.922;7.730;2023-03-01T08:42:33;142868.28;;;1.45;100.00
47530;BME280;33272;51.922;7.730;2023-03-01T08:45:00;142897.16;;;1.57;100.00
47530;BME280;33272;51.922;7.730;2023-03-01T08:47:27;142923.59;;;1.68;100.00
47530;BME280;33272;51.922;7.730;2023-03-01T08:49:54;142956.28;;;1.81;100.00
47530;BME280;33272;51.922;7.730;2023-03-01T08:52:21;142987.72;;;1.94;100.00
47530;BME280;33272;51.922;7.730;2023-03-01T08:54:48;143012.88;;;2.04;100.00
47530;BME280;33272;51.922;7.730;2023-03-01T08:57:16;143039.31;;;2.15;100.00
47530;BME280;33272;51.922;7.730;2023-03-01T08:59:43;143066.97;;;2.26;98.80
47530;BME280;33272;51.922;7.730;2023-03-01T09:02:14;143095.94;;;2.38;99.59
47530;BME280;33272;51.922;7.730;2023-03-01T09:04:41;143128.63;;;2.51;98.52
47530;BME280;33272;51.922;7.730;2023-03-01T09:07:09;143157.59;;;2.63;99.18
47530;BME280;33272;51.922;7.730;2023-03-01T09:09:37;143187.81;;;2.75;97.53
47530;BME280;33272;51.922;7.730;2023-03-01T09:12:05;143218.03;;;2.87;95.71
47530;BME280;33272;51.922;7.730;2023-03-01T09:14:33;143246.94;;;2.99;94.62
47530;BME280;33272;51.922;7.730;2023-03-01T09:17:00;143268.38;;;3.08;93.53
47530;BME280;33272;51.922;7.730;2023-03-01T09:19:28;143288.53;;;3.16;92.58
47530;BME280;33272;51.922;7.730;2023-03-01T09:21:55;143313.72;;;3.26;92.66
47530;BME280;33272;51.922;7.730;2023-03-01T09:24:25;143328.81;;;3.32;90.92
47530;BME280;33272;51.922;7.730;2023-03-01T09:26:56;143348.94;;;3.40;91.75
47530;BME280;33272;51.922;7.730;2023-03-01T09:29:24;143370.38;;;3.49;90.12
47530;BME280;33272;51.922;7.730;2023-03-01T09:31:53;143398.09;;;3.60;90.38
47530;BME280;33272;51.922;7.730;2023-03-01T09:34:21;143423.28;;;3.70;90.15
47530;BME280;33272;51.922;7.730;2023-03-01T09:36:49;143449.72;;;3.81;89.19
47530;BME280;33272;51.922;7.730;2023-03-01T09:39:17;143469.91;;;3.89;88.42
47530;BME280;33272;51.922;7.730;2023-03-01T09:41:49;143482.53;;;3.94;86.95
47530;BME280;33272;51.922;7.730;2023-03-01T09:44:27;143508.97;;;4.05;86.87
47530;BME280;33272;51.922;7.730;2023-03-01T09:46:56;143534.16;;;4.15;85.40
47530;BME280;33272;51.922;7.730;2023-03-01T09:49:26;143549.28;;;4.22;83.88
47530;BME280;33272;51.922;7.730;2023-03-01T09:51:58;143574.50;;;4.32;83.60
47530;BME280;33272;51.922;7.730;2023-03-01T09:54:27;143592.16;;;4.39;83.26
47530;BME280;33272;51.922;7.730;2023-03-01T09:57:06;143616.13;;;4.49;83.24
47530;BME280;33272;51.922;7.730;2023-03-01T09:59:46;143626.19;;;4.53;81.25
47530;BME280;33272;51.922;7.730;2023-03-01T10:02:27;143641.31;;;4.59;81.88
47530;BME280;33272;51.922;7.730;2023-03-01T10:05:05;143664.03;;;4.68;80.06
47530;BME280;33272;51.922;7.730;2023-03-01T10:07:45;143667.78;;;4.70;79.30
47530;BME280;33272;51.922;7.730;2023-03-01T10:10:26;143680.41;;;4.75;79.17
47530;BME280;33272;51.922;7.730;2023-03-01T10:12:55;143681.66;;;4.75;78.48
47530;BME280;33272;51.922;7.730;2023-03-01T10:15:32;143696.81;;;4.81;77.84
47530;BME280;33272;51.922;7.730;2023-03-01T10:18:04;143714.44;;;4.88;77.26
47530;BME280;33272;51.922;7.730;2023-03-01T10:20:42;143720.75;;;4.91;75.91
47530;BME280;33272;51.922;7.730;2023-03-01T10:23:10;143737.16;;;4.98;77.21
47530;BME280;33272;51.922;7.730;2023-03-01T10:26:09;143742.22;;;5.00;75.10
47530;BME280;33272;51.922;7.730;2023-03-01T10:28:50;143754.84;;;5.05;76.57
47530;BME280;33272;51.922;7.730;2023-03-01T10:31:25;143758.59;;;5.06;75.19
47530;BME280;33272;51.922;7.730;2023-03-01T10:33:56;143751.03;;;5.03;74.80
47530;BME280;33272;51.922;7.730;2023-03-01T10:36:24;143769.97;;;5.11;75.47
47530;BME280;33272;51.922;7.730;2023-03-01T10:38:53;143792.69;;;5.20;75.56
47530;BME280;33272;51.922;7.730;2023-03-01T10:41:24;143819.16;;;5.31;75.06
47530;BME280;33272;51.922;7.730;2023-03-01T10:43:54;143848.19;;;5.43;74.90
47530;BME280;33272;51.922;7.730;2023-03-01T10:46:28;143843.13;;;5.41;73.70
47530;BME280;33272;51.922;7.730;2023-03-01T10:49:16;143864.59;;;5.49;73.25
47530;BME280;33272;51.922;7.730;2023-03-01T10:51:46;143874.69;;;5.53;73.46
47530;BME280;33272;51.922;7.730;2023-03-01T10:54:27;143888.56;;;5.59;72.50
47530;BME280;33272;51.922;7.730;2023-03-01T10:56:57;143904.97;;;5.66;72.49
47530;BME280;33272;51.922;7.730;2023-03-01T10:59:30;143926.44;;;5.74;71.08
47530;BME280;33272;51.922;7.730;2023-03-01T11:02:16;143936.53;;;5.78;69.91
47530;BME280;33272;51.922;7.730;2023-03-01T11:05:13;143947.88;;;5.83;71.43
47530;BME280;33272;51.922;7.730;2023-03-01T11:07:48;143978.22;;;5.95;71.35
47530;BME280;33272;51.922;7.730;2023-03-01T11:10:19;143970.59;;;5.92;70.19
47530;BME280;33272;51.922;7.730;2023-03-01T11:12:46;143961.75;;;5.89;70.27
47530;BME280;33272;51.922;7.730;2023-03-01T11:15:23;143954.19;;;5.86;66.75
47530;BME280;33272;51.922;7.730;2023-03-01T11:17:51;143946.59;;;5.82;68.38
47530;BME280;33272;51.922;7.730;2023-03-01T11:20:27;143939.03;;;5.79;66.94
47530;BME280;33272;51.922;7.730;2023-03-01T11:23:00;143952.94;;;5.85;68.43
47530;BME280;33272;51.922;7.730;2023-03-01T11:25:34;143942.84;;;5.81;67.05
47530;BME280;33272;51.922;7.730;2023-03-01T11:28:05;143945.34;;;5.82;68.10
47530;BME280;33272;51.922;7.730;2023-03-01T11:30:36;143951.69;;;5.85;67.57
47530;BME280;33272;51.922;7.730;2023-03-01T11:33:16;143956.75;;;5.87;67.61
47530;BME280;33272;51.922;7.730;2023-03-01T11:35:53;143964.31;;;5.90;67.29
47530;BME280;33272;51.922;7.730;2023-03-01T11:38:24;143979.50;;;5.96;68.08
47530;BME280;33272;51.922;7.730;2023-03-01T11:40:57;143989.59;;;6.00;67.71
47530;BME280;33272;51.922;7.730;2023-03-01T11:43:41;144000.94;;;6.04;66.81
47530;BME280;33272;51.922;7.730;2023-03-01T11:46:44;143994.63;;;6.02;66.77
47530;BME280;33272;51.922;7.730;2023-03-01T11:49:48;144014.84;;;6.10;66.62
47530;BME280;33272;51.922;7.730;2023-03-01T11:52:30;144027.47;;;6.15;67.51
47530;BME280;33272;51.922;7.730;2023-03-01T11:55:20;144017.34;;;6.11;65.65
47530;BME280;33272;51.922;7.730;2023-03-01T11:58:27;143997.19;;;6.03;63.03
47530;BME280;33272;51.922;7.730;2023-03-01T12:01:11;144009.78;;;6.08;63.86
47530;BME280;33272;51.922;7.730;2023-03-01T12:04:00;144030.00;;;6.16;64.98
47530;BME280;33272;51.922;7.730;2023-03-01T12:06:50;144033.75;;;6.18;64.45
47530;BME280;33272;51.922;7.730;2023-03-01T12:09:43;144037.56;;;6.19;61.93
47530;BME280;33272;51.922;7.730;2023-03-01T12:12:42;144060.31;;;6.29;61.65
47530;BME280;33272;51.922;7.730;2023-03-01T12:15:39;144080.47;;;6.37;63.65
47530;BME280;33272;51.922;7.730;2023-03-01T12:18:28;144075.47;;;6.35;63.89
47530;BME280;33272;51.922;7.730;2023-03-01T12:21:08;144056.50;;;6.27;63.41
47530;BME280;33272;51.922;7.730;2023-03-01T12:28:02;144095.63;;;6.43;62.72
47530;BME280;33272;51.922;7.730;2023-03-01T12:30:48;144115.88;;;6.51;63.74
47530;BME280;33272;51.922;7.730;2023-03-01T12:33:30;144124.69;;;6.55;63.86
47530;BME280;33272;51.922;7.730;2023-03-01T12:39:42;144138.59;;;6.60;63.50
47530;BME280;33272;51.922;7.730;2023-03-01T12:42:25;144158.84;;;6.68;64.50
47530;BME280;33272;51.922;7.730;2023-03-01T12:45:32;144160.09;;;6.69;63.29
47530;BME280;33272;51.922;7.730;2023-03-01T12:48:21;144175.25;;;6.75;63.20
47530;BME280;33272;51.922;7.730;2023-03-01T12:50:55;144177.75;;;6.76;64.28
47530;BME280;33272;51.922;7.730;2023-03-01T12:53:28;144181.53;;;6.78;64.35
47530;BME280;33272;51.922;7.730;2023-03-01T12:56:02;144180.28;;;6.77;64.42
47530;BME280;33272;51.922;7.730;2023-03-01T12:58:38;144196.69;;;6.84;64.05
47530;BME280;33272;51.922;7.730;2023-03-01T13:01:17;144211.84;;;6.90;62.79
47530;BME280;33272;51.922;7.730;2023-03-01T13:04:06;144206.84;;;6.88;63.52
47530;BME280;33272;51.922;7.730;2023-03-01T13:06:44;144208.09;;;6.88;63.86
47530;BME280;33272;51.922;7.730;2023-03-01T13:09:22;144209.34;;;6.89;62.75
47530;BME280;33272;51.922;7.730;2023-03-01T13:11:51;144208.09;;;6.88;62.34
47530;BME280;33272;51.922;7.730;2023-03-01T13:14:45;144190.41;;;6.81;59.72
47530;BME280;33272;51.922;7.730;2023-03-01T13:17:33;144195.44;;;6.83;60.42